Vaciamadrid, Spain
Current Conditions -  °F | °C
As of 10:30 AM on Friday 24 Oct 2014 (Local Time) from LEMD Reporting Station
Clear Clear  
Wind Chill: 59°   Ceiling: Unl
Heat Index: 59°   Visibility: 6mi
Dew Point: 46°   Wind: 1mph
Humidity: 63%   Direction: 180°S
Pressure: 30.15"   Gusts: NA
Location:  40.33°N, 3.51°W
Report Text: LEMD 240830Z 18001KT CAVOK 15/08 Q1021 NOSIG
Loading
Personal Weather Stations






























Interactive Weather Map
Tropical Storm Tracking
New forecast layout! Learn more

10-Day Weather Forecast

Advertisements
Track Severe Weather on mobile